Time;durP1;ratioP1;P1;durP2;ratioP2;P2;SDS_P1;SDS_P2;PMS_P1;PMS_P2;Temp;Humidity;BMP_temperature;BMP_pressure;BME280_temperature;BME280_humidity;BME280_pressure;Samples;Min_cycle;Max_cycle;Signal;HPM_P1;HPM_P2
2022/06/22 00:01:40;;;;;;;0.30;0.30;;;14.40;99.90;;;;;;5054479;28;20040;-74
2022/06/22 00:04:12;;;;;;;0.30;0.30;;;14.20;99.90;;;;;;5054525;28;20045;-74
2022/06/22 00:06:42;;;;;;;0.30;0.30;;;14.10;99.90;;;;;;5054877;28;20064;-74
2022/06/22 00:09:24;;;;;;;0.30;0.30;;;14.10;99.90;;;;;;5054653;28;20071;-74
2022/06/22 00:11:51;;;;;;;0.30;0.30;;;14.10;99.90;;;;;;5038090;28;20044;-73
2022/06/22 00:14:20;;;;;;;0.50;0.50;;;14.10;99.90;;;;;;5054395;28;20087;-73
2022/06/22 00:16:52;;;;;;;0.30;0.30;;;14.00;99.90;;;;;;5054422;28;20051;-73
2022/06/22 00:19:29;;;;;;;0.30;0.30;;;14.00;99.90;;;;;;5054150;28;20048;-73
2022/06/22 00:21:55;;;;;;;0.50;0.50;;;13.90;99.90;;;;;;5054119;28;20059;-74
2022/06/22 00:24:23;;;;;;;0.43;0.43;;;13.90;99.90;;;;;;5054573;28;20080;-74
2022/06/22 00:27:00;;;;;;;0.30;0.30;;;13.80;99.90;;;;;;5054062;28;20049;-74
2022/06/22 00:29:36;;;;;;;0.40;0.40;;;13.80;99.90;;;;;;5054116;28;20131;-74
2022/06/22 00:32:15;;;;;;;0.45;0.45;;;13.80;99.90;;;;;;5054079;28;20044;-74
2022/06/22 00:34:40;;;;;;;0.30;0.30;;;13.80;99.90;;;;;;5053948;28;20044;-74
2022/06/22 00:37:14;;;;;;;0.30;0.30;;;13.80;99.90;;;;;;5054318;28;20119;-72
2022/06/22 00:39:48;;;;;;;0.30;0.30;;;13.70;99.90;;;;;;5053897;28;20447;-72
2022/06/22 00:42:40;;;;;;;0.50;0.50;;;13.60;99.90;;;;;;5053549;28;20084;-73
2022/06/22 00:45:12;;;;;;;0.40;0.40;;;13.80;99.90;;;;;;5053728;28;20068;-73
2022/06/22 00:47:41;;;;;;;0.43;0.43;;;13.50;99.90;;;;;;5053874;28;20076;-72
2022/06/22 00:50:23;;;;;;;0.35;0.35;;;13.50;99.90;;;;;;5053813;28;20127;-73
2022/06/22 00:52:59;;;;;;;0.30;0.30;;;13.40;99.90;;;;;;5053877;28;20075;-71
2022/06/22 00:55:53;;;;;;;0.40;0.40;;;13.40;99.90;;;;;;5035969;28;20053;-72
2022/06/22 00:58:31;;;;;;;0.32;0.32;;;13.40;99.90;;;;;;5053700;28;20084;-73
2022/06/22 01:01:06;;;;;;;0.30;0.30;;;13.30;99.90;;;;;;5053819;28;20103;-73
2022/06/22 01:03:43;;;;;;;0.40;0.40;;;13.30;99.90;;;;;;5053515;28;20477;-73
2022/06/22 01:06:08;;;;;;;0.40;0.40;;;13.20;99.90;;;;;;5053660;28;20053;-73
2022/06/22 01:08:51;;;;;;;0.30;0.30;;;13.40;99.90;;;;;;5053893;28;20144;-73
2022/06/22 01:14:34;;;;;;;0.30;0.30;;;13.10;99.90;;;;;;5053388;28;20045;-73
2022/06/22 01:17:01;;;;;;;0.40;0.40;;;13.00;99.90;;;;;;5053824;28;20045;-73
2022/06/22 01:19:46;;;;;;;0.40;0.40;;;13.00;99.90;;;;;;5053673;28;20044;-73
2022/06/22 01:22:34;;;;;;;0.40;0.40;;;13.30;99.90;;;;;;5053430;28;20048;-73
2022/06/22 01:25:27;;;;;;;0.40;0.40;;;12.90;99.90;;;;;;5053499;28;20064;-73
2022/06/22 01:27:53;;;;;;;0.30;0.30;;;13.10;99.90;;;;;;5053623;28;20044;-73
2022/06/22 01:30:26;;;;;;;0.43;0.43;;;12.80;99.90;;;;;;5057229;28;20044;-73
2022/06/22 01:32:53;;;;;;;0.30;0.30;;;12.80;99.90;;;;;;5057091;28;20560;-73
2022/06/22 01:35:26;;;;;;;0.32;0.32;;;12.70;99.90;;;;;;5057687;28;20406;-73
2022/06/22 01:37:53;;;;;;;0.30;0.30;;;12.70;99.90;;;;;;5057776;28;20045;-73
2022/06/22 01:40:24;;;;;;;0.40;0.40;;;12.60;99.90;;;;;;5057178;28;20132;-73
2022/06/22 01:42:54;;;;;;;0.40;0.40;;;12.60;99.90;;;;;;5057309;28;20041;-73
2022/06/22 01:45:38;;;;;;;0.40;0.40;;;12.50;99.90;;;;;;5057119;28;20052;-73
2022/06/22 01:48:18;;;;;;;0.30;0.30;;;12.50;99.90;;;;;;5057102;28;20048;-72
2022/06/22 01:51:00;;;;;;;0.40;0.40;;;12.40;99.90;;;;;;5057008;28;20086;-72
2022/06/22 01:53:32;;;;;;;0.40;0.40;;;12.40;99.90;;;;;;5056972;28;20049;-73
2022/06/22 01:56:24;;;;;;;0.40;0.40;;;12.40;99.90;;;;;;5056848;28;20048;-72
2022/06/22 01:59:06;;;;;;;0.40;0.40;;;12.30;99.90;;;;;;5056911;28;20041;-73
2022/06/22 02:01:45;;;;;;;0.40;0.40;;;12.30;99.90;;;;;;5056855;28;20048;-72
2022/06/22 02:04:21;;;;;;;0.40;0.40;;;12.40;99.90;;;;;;5057092;28;20122;-73
2022/06/22 02:10:34;;;;;;;0.40;0.40;;;12.10;99.90;;;;;;5056674;28;20049;-73
2022/06/22 02:13:17;;;;;;;0.40;0.40;;;12.10;99.90;;;;;;5056613;28;20044;-73
2022/06/22 02:15:49;;;;;;;0.40;0.40;;;12.00;99.90;;;;;;5056543;28;20071;-73
2022/06/22 02:18:33;;;;;;;0.40;0.40;;;12.00;99.90;;;;;;5056489;28;20041;-73
2022/06/22 02:21:14;;;;;;;0.40;0.40;;;12.20;99.90;;;;;;5056346;28;20044;-73
2022/06/22 02:23:41;;;;;;;0.40;0.40;;;11.90;99.90;;;;;;5056334;28;20404;-73
2022/06/22 02:26:34;;;;;;;0.40;0.40;;;11.90;99.90;;;;;;5056360;28;20045;-73
2022/06/22 02:29:00;;;;;;;0.40;0.40;;;11.90;99.90;;;;;;5038698;28;20171;-72
2022/06/22 02:31:26;;;;;;;0.40;0.40;;;11.80;99.90;;;;;;5056293;28;20045;-72
2022/06/22 02:33:55;;;;;;;0.50;0.50;;;11.80;99.90;;;;;;5056101;28;20128;-72
2022/06/22 02:36:24;;;;;;;0.40;0.40;;;11.70;99.90;;;;;;5056139;28;20130;-72
2022/06/22 02:38:52;;;;;;;0.40;0.40;;;11.70;99.90;;;;;;5056050;28;20103;-72
2022/06/22 02:44:30;;;;;;;0.40;0.40;;;11.90;99.90;;;;;;5055984;28;20045;-73
2022/06/22 02:47:23;;;;;;;0.40;0.40;;;11.60;99.90;;;;;;5055965;28;20171;-73
2022/06/22 02:49:59;;;;;;;0.40;0.40;;;11.50;99.90;;;;;;5055856;28;20053;-73
2022/06/22 02:52:41;;;;;;;0.40;0.40;;;11.50;99.90;;;;;;5038157;28;20041;-72
2022/06/22 02:55:13;;;;;;;0.40;0.40;;;11.50;99.90;;;;;;5056111;28;20080;-72
2022/06/22 02:57:44;;;;;;;0.40;0.40;;;11.40;99.90;;;;;;5056110;28;20179;-73
2022/06/22 03:00:11;;;;;;;0.40;0.40;;;11.40;99.90;;;;;;5055887;28;20056;-73
2022/06/22 03:02:37;;;;;;;0.40;0.40;;;11.40;99.90;;;;;;5055553;28;20052;-74
2022/06/22 03:05:05;;;;;;;0.40;0.40;;;11.30;99.90;;;;;;5055337;28;20069;-74
2022/06/22 03:07:35;;;;;;;0.40;0.40;;;11.30;99.90;;;;;;5055595;28;20401;-72
2022/06/22 03:10:02;;;;;;;0.40;0.40;;;11.30;99.90;;;;;;5055535;28;20047;-72
2022/06/22 03:12:28;;;;;;;0.40;0.40;;;11.30;99.90;;;;;;5055687;28;20427;-73
2022/06/22 03:15:12;;;;;;;0.40;0.40;;;11.30;99.90;;;;;;5055208;28;20044;-73
2022/06/22 03:17:39;;;;;;;0.40;0.40;;;11.30;99.90;;;;;;5055385;28;20053;-73
2022/06/22 03:20:08;;;;;;;;;;;11.30;99.90;;;;;;5055690;28;20048;-73
2022/06/22 03:22:37;;;;;;;0.40;0.40;;;11.30;99.90;;;;;;5055279;28;19947;-73
2022/06/22 03:25:54;;;;;;;0.40;0.40;;;11.30;99.90;;;;;;5055433;28;20045;-73
2022/06/22 03:28:30;;;;;;;0.40;0.40;;;11.30;99.90;;;;;;4974314;28;20050;-73
2022/06/22 03:31:05;;;;;;;0.40;0.40;;;11.20;99.90;;;;;;5052875;28;20060;-73
2022/06/22 03:33:44;;;;;;;0.40;0.40;;;11.20;99.90;;;;;;5055355;28;20128;-73
2022/06/22 03:36:33;;;;;;;0.40;0.40;;;11.20;99.90;;;;;;5054955;28;20094;-73
2022/06/22 03:39:05;;;;;;;0.40;0.40;;;11.20;99.90;;;;;;5055022;28;20405;-73
2022/06/22 03:41:35;;;;;;;0.45;0.45;;;11.20;99.90;;;;;;5055281;28;20045;-74
2022/06/22 03:44:21;;;;;;;0.40;0.40;;;11.10;99.90;;;;;;5054900;28;20075;-73
2022/06/22 03:46:54;;;;;;;0.40;0.40;;;11.10;99.90;;;;;;5053650;28;20128;-74
2022/06/22 03:50:00;;;;;;;0.50;0.50;;;11.10;99.90;;;;;;5055259;28;20049;-73
2022/06/22 03:52:31;;;;;;;0.40;0.40;;;11.10;99.90;;;;;;5036368;28;20053;-73
2022/06/22 03:55:19;;;;;;;0.40;0.40;;;11.10;99.90;;;;;;5054597;28;20049;-73
2022/06/22 03:57:49;;;;;;;0.40;0.40;;;11.10;99.90;;;;;;5055111;28;20127;-73
2022/06/22 04:00:17;;;;;;;0.40;0.40;;;11.10;99.90;;;;;;5054547;28;20053;-73
2022/06/22 04:02:43;;;;;;;0.40;0.40;;;11.10;99.90;;;;;;5054536;28;20132;-73
2022/06/22 04:05:18;;;;;;;0.40;0.40;;;11.10;99.90;;;;;;5054463;28;20380;-73
2022/06/22 04:07:45;;;;;;;0.40;0.40;;;11.20;99.90;;;;;;5054384;28;20049;-73
2022/06/22 04:10:37;;;;;;;0.40;0.40;;;11.20;99.90;;;;;;5054366;28;20473;-73
2022/06/22 04:13:09;;;;;;;0.40;0.40;;;11.20;99.90;;;;;;5054416;28;20048;-73
2022/06/22 04:15:59;;;;;;;0.40;0.40;;;11.20;99.90;;;;;;5054390;28;20170;-74
2022/06/22 04:18:31;;;;;;;0.50;0.50;;;11.30;99.90;;;;;;5054344;28;20048;-74
2022/06/22 04:21:02;;;;;;;0.40;0.40;;;11.30;99.90;;;;;;5054278;28;20051;-74
2022/06/22 04:23:37;;;;;;;0.50;0.50;;;11.30;99.90;;;;;;5054146;28;20049;-73
2022/06/22 04:26:27;;;;;;;0.40;0.40;;;11.30;99.90;;;;;;5054261;28;20051;-73
2022/06/22 04:28:57;;;;;;;0.40;0.40;;;11.30;99.90;;;;;;5054140;28;20469;-73
2022/06/22 04:31:32;;;;;;;0.40;0.40;;;11.60;99.90;;;;;;5054030;28;20055;-73
2022/06/22 04:34:07;;;;;;;0.40;0.40;;;11.40;99.90;;;;;;5054224;28;20056;-73
2022/06/22 04:36:48;;;;;;;0.40;0.40;;;11.40;99.90;;;;;;5054100;28;20040;-73
2022/06/22 04:39:27;;;;;;;0.40;0.40;;;11.60;99.90;;;;;;5054193;28;20044;-73
2022/06/22 04:41:53;;;;;;;0.40;0.40;;;11.60;99.90;;;;;;5054309;28;20534;-73
2022/06/22 04:44:30;;;;;;;0.40;0.40;;;11.60;99.90;;;;;;5053810;28;20083;-73
2022/06/22 04:47:05;;;;;;;0.40;0.40;;;11.70;99.90;;;;;;5053807;28;20456;-73
2022/06/22 04:49:40;;;;;;;0.40;0.40;;;11.70;99.90;;;;;;5053653;28;20500;-74
2022/06/22 04:52:26;;;;;;;0.40;0.40;;;11.80;99.90;;;;;;5053786;28;20060;-73
2022/06/22 04:54:55;;;;;;;0.40;0.40;;;11.80;99.90;;;;;;5053942;28;20395;-74
2022/06/22 04:57:29;;;;;;;0.40;0.40;;;11.90;99.90;;;;;;5053790;28;20041;-74
2022/06/22 04:59:55;;;;;;;0.50;0.50;;;11.90;99.90;;;;;;5053669;28;20049;-74
2022/06/22 05:02:24;;;;;;;0.40;0.40;;;12.00;99.90;;;;;;5053404;28;20066;-73
2022/06/22 05:04:53;;;;;;;0.40;0.40;;;12.00;99.90;;;;;;5053348;28;20051;-74
2022/06/22 05:07:45;;;;;;;0.40;0.40;;;12.10;99.90;;;;;;5053754;28;20049;-74
2022/06/22 05:10:20;;;;;;;0.40;0.40;;;12.10;99.90;;;;;;5053547;28;20053;-73
2022/06/22 05:12:56;;;;;;;0.50;0.50;;;12.20;99.90;;;;;;5053557;28;20052;-73
2022/06/22 05:15:34;;;;;;;0.40;0.40;;;12.20;99.90;;;;;;5053471;28;20127;-73
2022/06/22 05:18:02;;;;;;;0.40;0.40;;;12.30;99.90;;;;;;5036258;28;20056;-74
2022/06/22 05:20:39;;;;;;;0.40;0.40;;;12.40;99.90;;;;;;5053589;28;20405;-74
2022/06/22 05:23:06;;;;;;;0.80;0.68;;;12.50;99.90;;;;;;5053421;28;20440;-74
2022/06/22 05:25:33;;;;;;;0.80;0.80;;;12.60;99.90;;;;;;5035714;28;20402;-73
2022/06/22 05:28:09;;;;;;;0.40;0.40;;;12.90;99.90;;;;;;5053384;28;20114;-73
2022/06/22 05:30:54;;;;;;;0.50;0.50;;;13.30;99.90;;;;;;5053668;28;20059;-73
2022/06/22 05:33:22;;;;;;;0.70;0.70;;;13.80;99.90;;;;;;5053271;28;20049;-73
2022/06/22 05:35:54;;;;;;;0.40;0.40;;;14.20;99.90;;;;;;5053271;28;20090;-73
2022/06/22 05:38:22;;;;;;;0.40;0.40;;;14.70;99.90;;;;;;5053331;28;20045;-73
2022/06/22 05:40:50;;;;;;;0.43;0.43;;;15.10;99.90;;;;;;5053390;28;20102;-72
2022/06/22 05:43:17;;;;;;;0.30;0.30;;;15.60;99.90;;;;;;5053351;28;20095;-73
2022/06/22 05:45:47;;;;;;;0.30;0.30;;;16.00;99.90;;;;;;5053087;28;20045;-73
2022/06/22 05:48:25;;;;;;;0.40;0.40;;;16.40;99.90;;;;;;5053222;28;20049;-73
2022/06/22 05:51:09;;;;;;;0.40;0.40;;;16.60;99.90;;;;;;5053309;28;20037;-73
2022/06/22 05:53:48;;;;;;;1.08;1.05;;;16.90;99.90;;;;;;5053410;28;20370;-73
2022/06/22 05:56:13;;;;;;;0.40;0.40;;;17.10;99.90;;;;;;5053144;28;20044;-73
2022/06/22 05:58:58;;;;;;;0.63;0.63;;;17.40;99.90;;;;;;5053496;28;20045;-73
2022/06/22 06:01:43;;;;;;;0.47;0.47;;;17.60;99.90;;;;;;5053948;28;20052;-73
2022/06/22 06:04:35;;;;;;;0.30;0.30;;;17.80;99.90;;;;;;5053032;28;20040;-73
2022/06/22 06:07:27;;;;;;;0.40;0.40;;;18.10;99.90;;;;;;5052585;28;20064;-72
2022/06/22 06:09:54;;;;;;;0.40;0.40;;;18.40;99.90;;;;;;5039228;28;20131;-74
2022/06/22 06:12:39;;;;;;;1.20;0.67;;;18.60;99.90;;;;;;5052963;28;20508;-73
2022/06/22 06:15:06;;;;;;;0.30;0.30;;;18.50;99.90;;;;;;5054519;28;20080;-73
2022/06/22 06:17:43;;;;;;;0.40;0.40;;;18.70;99.90;;;;;;5056984;28;20057;-73
2022/06/22 06:20:25;;;;;;;0.30;0.30;;;18.90;99.90;;;;;;5057049;28;20076;-74
2022/06/22 06:22:54;;;;;;;0.45;0.45;;;19.00;99.90;;;;;;5055619;28;20052;-74
2022/06/22 06:28:21;;;;;;;0.30;0.30;;;19.10;99.90;;;;;;5056288;28;20088;-74
2022/06/22 06:30:50;;;;;;;0.30;0.30;;;19.00;99.90;;;;;;5056499;28;20049;-73
2022/06/22 06:33:28;;;;;;;0.30;0.30;;;19.10;99.90;;;;;;5056159;28;20504;-73
2022/06/22 06:36:04;;;;;;;0.32;0.32;;;19.20;99.90;;;;;;5056180;28;20085;-73
2022/06/22 06:39:05;;;;;;;0.40;0.30;;;19.20;99.90;;;;;;5056434;28;20409;-74
2022/06/22 06:41:43;;;;;;;0.50;0.50;;;19.20;99.90;;;;;;5056144;28;20049;-73
2022/06/22 06:44:21;;;;;;;0.30;0.30;;;19.00;99.90;;;;;;5056062;28;20040;-73
2022/06/22 06:46:53;;;;;;;0.30;0.30;;;19.00;99.90;;;;;;5056042;28;20033;-73
2022/06/22 06:49:37;;;;;;;0.30;0.30;;;19.00;99.90;;;;;;5055993;28;20052;-72
2022/06/22 06:52:30;;;;;;;0.63;0.52;;;19.10;99.90;;;;;;5055827;28;20478;-74
2022/06/22 06:54:58;;;;;;;0.30;0.30;;;19.10;99.90;;;;;;5055696;28;20086;-74
2022/06/22 06:57:24;;;;;;;0.40;0.40;;;19.20;99.90;;;;;;5055779;28;20556;-74
2022/06/22 06:59:54;;;;;;;0.30;0.30;;;19.30;99.90;;;;;;5055810;28;20129;-73
2022/06/22 07:02:25;;;;;;;0.30;0.30;;;19.40;99.90;;;;;;5056009;28;20409;-75
2022/06/22 07:04:51;;;;;;;0.47;0.47;;;19.40;99.90;;;;;;5055434;28;20072;-74
2022/06/22 07:07:31;;;;;;;0.40;0.40;;;19.40;99.90;;;;;;5055676;28;20481;-74
2022/06/22 07:10:02;;;;;;;0.30;0.30;;;19.40;99.90;;;;;;5055611;28;20287;-73
2022/06/22 07:12:46;;;;;;;0.47;0.47;;;19.40;99.90;;;;;;5055576;28;20041;-73
2022/06/22 07:15:18;;;;;;;0.30;0.30;;;19.40;99.90;;;;;;5055598;28;20049;-73
2022/06/22 07:17:46;;;;;;;0.30;0.30;;;19.50;99.90;;;;;;5055436;28;20052;-74
2022/06/22 07:20:19;;;;;;;0.30;0.30;;;19.50;99.90;;;;;;5055038;28;20086;-74
2022/06/22 07:22:59;;;;;;;0.30;0.30;;;19.60;99.90;;;;;;5055990;28;20053;-74
2022/06/22 07:25:44;;;;;;;0.30;0.30;;;19.60;99.90;;;;;;5054966;28;20493;-73
2022/06/22 07:28:13;;;;;;;0.30;0.30;;;19.70;99.90;;;;;;5055279;28;20060;-73
2022/06/22 07:30:51;;;;;;;0.30;0.30;;;19.80;99.90;;;;;;5055089;28;20041;-73
2022/06/22 07:33:43;;;;;;;0.30;0.30;;;19.80;99.90;;;;;;5055160;28;20052;-73
2022/06/22 07:36:41;;;;;;;4.50;0.65;;;19.90;99.90;;;;;;5054991;28;20041;-73
2022/06/22 07:39:24;;;;;;;0.30;0.30;;;19.90;99.90;;;;;;5055455;28;20045;-73
2022/06/22 07:41:49;;;;;;;0.30;0.30;;;20.00;99.90;;;;;;5055251;28;20095;-74
2022/06/22 07:44:19;;;;;;;0.30;0.30;;;20.10;99.90;;;;;;5054929;28;20041;-74
2022/06/22 07:46:55;;;;;;;0.20;0.20;;;20.10;99.90;;;;;;5054882;28;20084;-74
2022/06/22 07:49:52;;;;;;;0.50;0.50;;;20.20;99.90;;;;;;5054746;28;20037;-73
2022/06/22 07:52:25;;;;;;;0.30;0.30;;;20.30;99.90;;;;;;5044082;28;20053;-73
2022/06/22 07:55:06;;;;;;;0.30;0.30;;;20.40;99.90;;;;;;5054616;28;20504;-73
2022/06/22 07:57:47;;;;;;;0.70;0.63;;;20.50;99.50;;;;;;5054595;28;20037;-74
2022/06/22 08:00:15;;;;;;;0.30;0.30;;;20.70;99.90;;;;;;5054637;28;20052;-74
2022/06/22 08:02:48;;;;;;;0.28;0.28;;;20.70;99.90;;;;;;5036709;28;20128;-73
2022/06/22 08:05:19;;;;;;;0.43;0.40;;;20.80;99.90;;;;;;5054494;28;20064;-73
2022/06/22 08:07:57;;;;;;;0.30;0.30;;;21.10;99.90;;;;;;5054393;28;20045;-73
2022/06/22 08:10:36;;;;;;;0.30;0.30;;;21.20;99.80;;;;;;5054379;28;20476;-73
2022/06/22 08:13:10;;;;;;;0.30;0.30;;;21.20;97.80;;;;;;5054338;28;20045;-73
2022/06/22 08:15:43;;;;;;;0.35;0.35;;;21.20;95.20;;;;;;5054265;28;20084;-73
2022/06/22 08:18:09;;;;;;;0.22;0.22;;;21.10;95.10;;;;;;5054255;28;20053;-73
2022/06/22 08:20:38;;;;;;;0.30;0.30;;;21.20;95.70;;;;;;5054061;28;20051;-73
2022/06/22 08:23:07;;;;;;;0.40;0.40;;;21.30;95.20;;;;;;5054169;28;20053;-73
2022/06/22 08:25:34;;;;;;;0.30;0.30;;;21.30;97.10;;;;;;5054084;28;20083;-74
2022/06/22 08:28:02;;;;;;;0.30;0.30;;;21.50;94.60;;;;;;5053818;28;20041;-73
2022/06/22 08:30:29;;;;;;;0.30;0.30;;;21.60;95.50;;;;;;5054184;28;20053;-73
2022/06/22 08:33:02;;;;;;;0.30;0.30;;;21.60;94.40;;;;;;5053921;28;20056;-75
2022/06/22 08:35:36;;;;;;;0.38;0.38;;;21.50;92.20;;;;;;5053762;28;20051;-74
2022/06/22 08:38:07;;;;;;;0.30;0.30;;;21.70;94.40;;;;;;5053499;28;20041;-74
2022/06/22 08:40:47;;;;;;;0.30;0.30;;;21.80;94.90;;;;;;5053957;28;20404;-75
2022/06/22 08:43:39;;;;;;;0.30;0.30;;;21.90;92.20;;;;;;5053983;28;20047;-75
2022/06/22 08:46:52;;;;;;;0.30;0.30;;;22.00;92.70;;;;;;5053838;28;20045;-75
2022/06/22 08:49:48;;;;;;;0.22;0.22;;;22.20;92.50;;;;;;5053745;28;20123;-74
2022/06/22 08:52:51;;;;;;;0.40;0.40;;;22.40;92.90;;;;;;5053688;28;20064;-75
2022/06/22 08:55:40;;;;;;;0.40;0.40;;;22.30;91.90;;;;;;5053671;28;20037;-75
2022/06/22 08:58:56;;;;;;;0.20;0.20;;;22.40;91.90;;;;;;5053728;28;20056;-74
2022/06/22 09:01:49;;;;;;;0.30;0.30;;;22.50;92.30;;;;;;5053714;28;20412;-73
2022/06/22 09:04:26;;;;;;;0.20;0.20;;;22.40;92.60;;;;;;5053709;28;20091;-73
2022/06/22 09:07:03;;;;;;;0.20;0.20;;;22.50;91.90;;;;;;5054629;28;20143;-73
2022/06/22 09:09:44;;;;;;;0.20;0.20;;;22.60;91.80;;;;;;5053891;28;20049;-73
2022/06/22 09:12:15;;;;;;;0.20;0.20;;;22.60;91.30;;;;;;5053571;28;20037;-74
2022/06/22 09:15:06;;;;;;;0.22;0.22;;;22.70;91.50;;;;;;5053492;28;20085;-74
2022/06/22 09:17:49;;;;;;;0.20;0.20;;;22.70;90.70;;;;;;5053566;28;20049;-73
2022/06/22 09:20:47;;;;;;;0.30;0.30;;;22.70;91.30;;;;;;5053968;28;20075;-73
2022/06/22 09:23:31;;;;;;;0.30;0.30;;;22.70;90.30;;;;;;5053435;28;20056;-73
2022/06/22 09:26:00;;;;;;;0.40;0.40;;;22.50;88.90;;;;;;5053677;28;20480;-73
2022/06/22 09:28:36;;;;;;;0.38;0.38;;;22.70;89.40;;;;;;5053727;28;20136;-73
2022/06/22 09:31:39;;;;;;;0.30;0.30;;;22.90;90.30;;;;;;5053365;28;20045;-74
2022/06/22 09:34:42;;;;;;;0.90;0.50;;;22.90;87.00;;;;;;5053592;28;20049;-73
2022/06/22 09:37:42;;;;;;;0.45;0.40;;;22.90;86.90;;;;;;5053577;28;20045;-74
2022/06/22 09:40:19;;;;;;;0.30;0.30;;;23.00;88.20;;;;;;5053248;28;20080;-74
2022/06/22 09:43:00;;;;;;;;;;;23.00;87.50;;;;;;5054100;28;20045;-73
2022/06/22 09:45:44;;;;;;;0.20;0.20;;;23.00;85.70;;;;;;5053247;28;20046;-73
2022/06/22 09:49:08;;;;;;;0.30;0.30;;;23.20;88.20;;;;;;5053272;28;20438;-74
2022/06/22 09:52:09;;;;;;;0.30;0.30;;;23.30;88.00;;;;;;4976040;28;20082;-74
2022/06/22 09:58:12;;;;;;;0.75;0.75;;;23.40;82.00;;;;;;5057323;28;20049;-74
2022/06/22 10:00:58;;;;;;;0.20;0.20;;;23.40;82.40;;;;;;5056888;28;20410;-74
2022/06/22 10:03:39;;;;;;;0.43;0.40;;;23.50;82.40;;;;;;5057322;28;20041;-74
2022/06/22 10:06:23;;;;;;;0.20;0.20;;;23.60;83.00;;;;;;5057131;28;20055;-74
2022/06/22 10:09:01;;;;;;;0.20;0.20;;;23.50;84.10;;;;;;5056897;28;20052;-74
2022/06/22 10:11:40;;;;;;;0.45;0.45;;;23.60;85.60;;;;;;5056694;28;20055;-74
2022/06/22 10:14:24;;;;;;;0.20;0.20;;;23.60;83.80;;;;;;5057051;28;20044;-74
2022/06/22 10:17:19;;;;;;;0.40;0.40;;;23.70;87.00;;;;;;5056614;28;20132;-74
2022/06/22 10:19:53;;;;;;;0.20;0.20;;;23.80;85.30;;;;;;5056484;28;20053;-74
2022/06/22 10:22:44;;;;;;;0.30;0.30;;;23.90;85.10;;;;;;5056350;28;20048;-75
2022/06/22 10:25:30;;;;;;;0.40;0.40;;;23.80;84.40;;;;;;5056387;28;20045;-73
2022/06/22 10:28:33;;;;;;;0.30;0.30;;;24.00;85.40;;;;;;5056441;28;20060;-74
2022/06/22 10:31:17;;;;;;;0.30;0.30;;;24.10;81.40;;;;;;5056669;28;20052;-74
2022/06/22 10:34:28;;;;;;;0.20;0.20;;;24.10;83.60;;;;;;5056306;28;20052;-74
2022/06/22 10:37:21;;;;;;;0.20;0.20;;;24.40;82.80;;;;;;5008312;28;20053;-74
2022/06/22 10:40:11;;;;;;;0.43;0.43;;;24.20;82.40;;;;;;5056420;28;20091;-74
2022/06/22 10:45:58;;;;;;;0.30;0.30;;;24.00;80.60;;;;;;5055993;28;20052;-74
2022/06/22 10:48:38;;;;;;;0.30;0.30;;;24.00;80.90;;;;;;5056029;28;20048;-74
2022/06/22 10:51:13;;;;;;;0.30;0.30;;;24.10;83.10;;;;;;5038114;28;20149;-74
2022/06/22 10:53:56;;;;;;;0.30;0.30;;;24.30;84.60;;;;;;5056049;28;20052;-74
2022/06/22 10:56:55;;;;;;;0.32;0.32;;;24.20;82.30;;;;;;5056107;28;20101;-74
2022/06/22 10:59:27;;;;;;;0.20;0.20;;;24.30;81.20;;;;;;5055865;28;20084;-74
2022/06/22 11:02:35;;;;;;;0.30;0.30;;;24.50;80.70;;;;;;5037781;28;20091;-75
2022/06/22 11:05:31;;;;;;;0.40;0.40;;;24.70;75.90;;;;;;5055821;28;20041;-75
2022/06/22 11:08:31;;;;;;;0.30;0.30;;;24.80;76.70;;;;;;5055575;28;20392;-74
2022/06/22 11:11:09;;;;;;;0.30;0.30;;;24.90;76.20;;;;;;5055544;28;20056;-74
2022/06/22 11:14:12;;;;;;;0.20;0.20;;;25.00;73.30;;;;;;5055686;28;20095;-74
2022/06/22 11:17:22;;;;;;;0.30;0.30;;;24.90;77.60;;;;;;5055455;28;20048;-74
2022/06/22 11:20:07;;;;;;;0.30;0.30;;;24.90;77.10;;;;;;5055413;28;20041;-74
2022/06/22 11:22:39;;;;;;;0.30;0.30;;;25.00;76.80;;;;;;5055395;28;20397;-75
2022/06/22 11:32:06;;;;;;;0.20;0.20;;;25.10;74.50;;;;;;4974381;28;20195;-74
2022/06/22 11:34:56;;;;;;;0.35;0.35;;;25.10;76.50;;;;;;5055278;28;20124;-75
2022/06/22 11:37:42;;;;;;;0.20;0.20;;;25.10;74.10;;;;;;5055620;28;20088;-75
2022/06/22 11:40:33;;;;;;;0.32;0.32;;;25.30;73.40;;;;;;5054571;28;20147;-75
2022/06/22 11:43:20;;;;;;;0.20;0.20;;;25.50;73.50;;;;;;5055022;28;20098;-75
2022/06/22 11:46:10;;;;;;;0.30;0.30;;;25.60;76.00;;;;;;5054678;28;20441;-75
2022/06/22 11:49:16;;;;;;;0.20;0.20;;;25.60;74.90;;;;;;5054861;28;20053;-73
2022/06/22 11:52:20;;;;;;;0.20;0.20;;;25.60;74.50;;;;;;5054663;28;20049;-75
2022/06/22 11:54:54;;;;;;;0.30;0.30;;;25.60;72.50;;;;;;4973731;28;20047;-75
2022/06/22 11:57:28;;;;;;;0.35;0.35;;;25.60;74.70;;;;;;4973905;28;20545;-78
2022/06/22 12:00:25;;;;;;;0.30;0.30;;;25.60;75.10;;;;;;5020460;28;20417;-77
2022/06/22 12:03:15;;;;;;;0.30;0.30;;;25.90;75.00;;;;;;5037351;28;20049;-75
2022/06/22 12:06:08;;;;;;;0.20;0.20;;;26.00;73.30;;;;;;5054806;28;20088;-76
2022/06/22 12:09:12;;;;;;;0.20;0.20;;;26.00;75.60;;;;;;5054681;28;20056;-78
2022/06/22 12:12:15;;;;;;;1.95;1.85;;;25.90;73.90;;;;;;5054113;28;20146;-78
2022/06/22 12:15:05;;;;;;;0.20;0.20;;;26.10;75.20;;;;;;5054461;28;20074;-77
2022/06/22 12:17:51;;;;;;;4.47;1.15;;;26.00;72.40;;;;;;5054488;28;20048;-74
2022/06/22 12:20:45;;;;;;;0.30;0.30;;;26.00;70.40;;;;;;5054382;28;20049;-77
2022/06/22 12:23:44;;;;;;;0.20;0.20;;;25.80;70.90;;;;;;5036870;28;20124;-80
2022/06/22 12:26:34;;;;;;;0.38;0.38;;;26.00;72.30;;;;;;5054452;28;20072;-77
2022/06/22 12:29:17;;;;;;;0.32;0.32;;;26.00;70.70;;;;;;5054287;28;20041;-77
2022/06/22 12:31:50;;;;;;;0.75;0.55;;;26.20;70.30;;;;;;5054080;28;20576;-75
2022/06/22 12:34:25;;;;;;;0.30;0.30;;;26.20;68.30;;;;;;5054119;28;20090;-78
2022/06/22 12:36:56;;;;;;;0.20;0.20;;;26.20;69.70;;;;;;5054078;28;20091;-76
2022/06/22 12:39:33;;;;;;;0.30;0.30;;;26.30;69.30;;;;;;5053982;28;20037;-76
2022/06/22 12:42:17;;;;;;;;;;;26.20;67.80;;;;;;5054387;28;20083;-74
2022/06/22 12:45:01;;;;;;;0.30;0.30;;;26.20;70.20;;;;;;5053916;28;19920;-79
2022/06/22 12:47:47;;;;;;;6.07;0.40;;;26.30;67.50;;;;;;5053867;28;20051;-76
2022/06/22 12:50:19;;;;;;;0.25;0.25;;;26.10;68.00;;;;;;5053827;28;20055;-79
2022/06/22 12:52:52;;;;;;;0.20;0.20;;;26.00;69.10;;;;;;5053735;28;20482;-76
2022/06/22 12:55:23;;;;;;;0.30;0.30;;;26.20;70.70;;;;;;5053704;28;20071;-79
2022/06/22 12:57:59;;;;;;;0.20;0.20;;;26.40;70.30;;;;;;5053624;28;20052;-77
2022/06/22 13:00:25;;;;;;;0.30;0.30;;;26.40;68.40;;;;;;5053825;28;20094;-79
2022/06/22 13:02:57;;;;;;;0.20;0.20;;;26.40;71.20;;;;;;5053614;28;20049;-78
2022/06/22 13:05:28;;;;;;;0.38;0.38;;;26.40;70.10;;;;;;5053870;28;20049;-74
2022/06/22 13:08:21;;;;;;;0.20;0.20;;;26.50;70.40;;;;;;5053633;28;20094;-75
2022/06/22 13:10:50;;;;;;;0.20;0.20;;;26.40;69.20;;;;;;5045212;28;20406;-76
2022/06/22 13:13:31;;;;;;;0.20;0.20;;;26.40;70.30;;;;;;5053521;28;20061;-77
2022/06/22 13:16:12;;;;;;;0.55;0.52;;;26.70;71.50;;;;;;5053492;28;20041;-75
2022/06/22 13:18:58;;;;;;;0.30;0.30;;;26.90;69.60;;;;;;5053509;28;20037;-78
2022/06/22 13:21:30;;;;;;;0.20;0.20;;;26.90;68.80;;;;;;5053634;28;20045;-74
2022/06/22 13:24:17;;;;;;;0.20;0.20;;;27.00;68.00;;;;;;5055027;28;20049;-76
2022/06/22 13:27:26;;;;;;;0.40;0.40;;;27.00;68.60;;;;;;5057638;28;20056;-77
2022/06/22 13:30:06;;;;;;;0.20;0.20;;;27.10;67.80;;;;;;5057561;28;20136;-78
2022/06/22 13:32:34;;;;;;;0.20;0.20;;;27.20;68.10;;;;;;5057147;28;20523;-76
2022/06/22 13:35:03;;;;;;;0.32;0.32;;;27.30;66.70;;;;;;5057345;28;20053;-73
2022/06/22 13:37:44;;;;;;;0.25;0.25;;;27.40;67.30;;;;;;5057165;28;20500;-76
2022/06/22 13:40:26;;;;;;;0.20;0.20;;;27.40;69.40;;;;;;5057543;28;20056;-74
2022/06/22 13:43:00;;;;;;;0.30;0.30;;;27.40;67.60;;;;;;5057485;28;20048;-77
2022/06/22 13:45:47;;;;;;;0.20;0.20;;;27.40;65.70;;;;;;5057292;28;20048;-75
2022/06/22 13:48:19;;;;;;;0.20;0.20;;;27.50;68.10;;;;;;5057391;28;20397;-75
2022/06/22 13:51:18;;;;;;;0.35;0.35;;;27.50;65.20;;;;;;5057201;28;20041;-79
2022/06/22 13:53:58;;;;;;;0.20;0.20;;;27.50;67.80;;;;;;5057122;28;20051;-79
2022/06/22 13:57:06;;;;;;;0.20;0.20;;;27.40;65.40;;;;;;5057492;28;20056;-78
2022/06/22 13:59:59;;;;;;;0.52;0.40;;;27.40;66.90;;;;;;5057135;28;20041;-75
2022/06/22 14:02:58;;;;;;;0.20;0.20;;;27.40;69.20;;;;;;5057271;28;20053;-75
2022/06/22 14:05:44;;;;;;;0.30;0.30;;;27.40;66.20;;;;;;5056960;28;20061;-79
2022/06/22 14:08:39;;;;;;;0.30;0.30;;;27.40;68.20;;;;;;5056854;28;20081;-77
2022/06/22 14:11:44;;;;;;;0.20;0.20;;;27.40;68.80;;;;;;5057138;28;20071;-77
2022/06/22 14:14:27;;;;;;;0.30;0.30;;;27.40;68.90;;;;;;5056839;28;20132;-76
2022/06/22 14:17:05;;;;;;;0.40;0.40;;;27.40;67.80;;;;;;5039091;28;20049;-75
2022/06/22 14:19:44;;;;;;;1.98;0.70;;;27.40;67.00;;;;;;5056593;28;20052;-75